createdAt,value
2022-11-19T00:02:11.165Z,12.43
2022-11-19T00:07:03.754Z,10.18
2022-11-19T00:09:30.520Z,13.60
2022-11-19T00:12:15.852Z,10.38
2022-11-19T00:14:42.530Z,6.70
2022-11-19T00:22:00.109Z,8.63
2022-11-19T00:24:29.975Z,12.38
2022-11-19T00:26:56.559Z,7.20
2022-11-19T00:29:23.574Z,7.93
2022-11-19T00:31:50.495Z,10.27
2022-11-19T00:34:17.125Z,12.07
2022-11-19T00:39:09.309Z,7.68
2022-11-19T00:41:35.998Z,6.53
2022-11-19T00:44:02.738Z,8.38
2022-11-19T00:48:56.833Z,7.13
2022-11-19T00:51:24.233Z,12.70
2022-11-19T00:53:51.191Z,10.93
2022-11-19T00:56:19.116Z,7.25
2022-11-19T00:58:46.420Z,10.65
2022-11-19T01:01:13.634Z,10.52
2022-11-19T01:06:08.218Z,7.10
2022-11-19T01:08:35.322Z,10.63
2022-11-19T01:11:12.949Z,6.65
2022-11-19T01:13:39.868Z,13.02
2022-11-19T01:16:11.005Z,10.98
2022-11-19T01:23:30.474Z,11.90
2022-11-19T01:25:57.271Z,8.98
2022-11-19T01:28:23.913Z,14.52
2022-11-19T01:33:16.010Z,5.22
2022-11-19T01:35:42.845Z,12.65
2022-11-19T01:38:09.542Z,10.98
2022-11-19T01:43:10.464Z,11.15
2022-11-19T01:45:44.238Z,6.97
2022-11-19T01:48:20.478Z,14.20
2022-11-19T01:50:50.177Z,6.95
2022-11-19T01:55:45.085Z,13.50
2022-11-19T01:58:13.830Z,11.30
2022-11-19T02:03:06.240Z,12.13
2022-11-19T02:05:33.321Z,5.93
2022-11-19T02:07:59.988Z,13.02
2022-11-19T02:13:08.409Z,15.50
2022-11-19T02:15:51.558Z,8.63
2022-11-19T02:18:27.411Z,12.75
2022-11-19T02:23:45.703Z,4.68
2022-11-19T02:39:53.879Z,16.95
2022-11-19T02:47:45.390Z,11.95
2022-11-19T02:50:15.477Z,15.93
2022-11-19T02:52:43.419Z,7.72
2022-11-19T02:55:12.446Z,12.00
2022-11-19T02:57:39.840Z,11.35
2022-11-19T03:00:25.550Z,13.02
2022-11-19T03:05:51.461Z,8.90
2022-11-19T03:08:18.702Z,11.52
2022-11-19T03:11:00.390Z,7.72
2022-11-19T03:13:49.823Z,10.27
2022-11-19T03:16:39.708Z,15.13
2022-11-19T03:19:12.337Z,12.43
2022-11-19T03:24:09.161Z,8.60
2022-11-19T03:26:46.175Z,12.80
2022-11-19T03:29:14.080Z,15.13
2022-11-19T03:31:42.100Z,14.35
2022-11-19T03:34:12.095Z,11.00
2022-11-19T03:39:09.061Z,12.73
2022-11-19T03:41:37.022Z,17.58
2022-11-19T03:44:08.067Z,8.65
2022-11-19T03:53:59.084Z,8.23
2022-11-19T03:56:26.928Z,10.40
2022-11-19T03:58:53.933Z,11.25
2022-11-19T04:01:20.919Z,8.98
2022-11-19T04:04:07.526Z,10.20
2022-11-19T04:08:59.636Z,13.25
2022-11-19T04:13:51.758Z,11.77
2022-11-19T04:16:18.448Z,9.60
2022-11-19T04:23:35.911Z,5.15
2022-11-19T04:26:02.573Z,9.00
2022-11-19T04:28:29.206Z,12.27
2022-11-19T04:30:55.824Z,10.15
2022-11-19T04:35:47.977Z,11.05
2022-11-19T04:38:14.904Z,11.90
2022-11-19T04:40:41.979Z,8.90
2022-11-19T04:45:34.269Z,9.27
2022-11-19T04:48:01.265Z,9.65
2022-11-19T04:50:29.286Z,9.57
2022-11-19T04:52:55.942Z,11.70
2022-11-19T04:55:22.546Z,14.90
2022-11-19T04:57:51.868Z,13.68
2022-11-19T05:00:18.978Z,14.32
2022-11-19T05:02:45.817Z,11.00
2022-11-19T05:05:12.563Z,16.15
2022-11-19T05:07:39.297Z,12.38
2022-11-19T05:10:06.140Z,9.85
2022-11-19T05:12:32.730Z,13.52
2022-11-19T05:14:59.382Z,14.20
2022-11-19T05:19:51.509Z,14.32
2022-11-19T05:22:18.199Z,13.75
2022-11-19T05:27:10.291Z,7.20
2022-11-19T05:29:36.984Z,14.77
2022-11-19T05:34:29.078Z,9.80
2022-11-19T05:36:55.743Z,9.93
2022-11-19T05:39:22.634Z,15.27
2022-11-19T05:44:15.256Z,9.15
2022-11-19T05:46:41.959Z,7.97
2022-11-19T05:49:11.909Z,8.23
2022-11-19T05:51:38.731Z,16.75
2022-11-19T05:54:05.475Z,12.18
2022-11-19T05:56:32.164Z,6.47
2022-11-19T06:03:50.588Z,12.18
2022-11-19T06:06:17.246Z,8.32
2022-11-19T06:08:43.886Z,11.48
2022-11-19T06:21:15.365Z,15.63
2022-11-19T06:23:42.076Z,6.97
2022-11-19T06:26:09.579Z,8.10
2022-11-19T06:33:27.112Z,21.20
2022-11-19T06:35:53.863Z,12.55
2022-11-19T06:38:20.574Z,15.38
2022-11-19T06:40:47.386Z,9.77
2022-11-19T06:43:13.984Z,12.88
2022-11-19T06:45:40.602Z,11.05
2022-11-19T06:48:07.253Z,9.77
2022-11-19T06:50:33.824Z,14.57
2022-11-19T06:53:00.481Z,14.50
2022-11-19T06:55:27.679Z,11.32
2022-11-19T06:57:54.317Z,11.48
2022-11-19T07:07:37.305Z,10.93
2022-11-19T07:10:04.245Z,17.08
2022-11-19T07:12:30.887Z,11.40
2022-11-19T07:19:51.354Z,9.80
2022-11-19T07:22:18.465Z,10.27
2022-11-19T07:24:45.346Z,10.00
2022-11-19T07:27:12.251Z,12.95
2022-11-19T07:34:30.615Z,13.02
2022-11-19T07:36:57.605Z,13.82
2022-11-19T07:39:24.276Z,12.45
2022-11-19T07:42:09.224Z,15.77
2022-11-19T07:44:40.505Z,15.85
2022-11-19T07:49:33.424Z,12.18
2022-11-19T07:52:00.298Z,13.82
2022-11-19T07:54:28.485Z,16.10
2022-11-19T07:56:56.597Z,11.85
2022-11-19T07:59:23.333Z,14.50
2022-11-19T08:01:49.976Z,20.65
2022-11-19T08:04:16.656Z,11.68
2022-11-19T08:06:43.378Z,12.25
2022-11-19T08:11:36.122Z,16.88
2022-11-19T08:14:03.111Z,17.15
2022-11-19T08:19:16.403Z,16.50
2022-11-19T08:21:44.316Z,17.73
2022-11-19T08:26:36.908Z,14.60
2022-11-19T08:29:03.895Z,12.20
2022-11-19T08:48:48.574Z,22.17
2022-11-19T09:00:59.238Z,15.63
2022-11-19T09:03:26.101Z,16.67
2022-11-19T09:10:52.805Z,10.90
2022-11-19T09:13:19.657Z,17.67
2022-11-19T09:15:49.867Z,17.02
2022-11-19T09:18:16.667Z,14.18
2022-11-19T09:20:44.003Z,16.35
2022-11-19T09:23:11.023Z,11.77
2022-11-19T09:25:37.818Z,18.27
2022-11-19T09:28:04.629Z,12.43
2022-11-19T09:30:31.719Z,14.65
2022-11-19T09:32:59.278Z,12.32
2022-11-19T09:35:26.230Z,22.08
2022-11-19T09:37:53.194Z,12.93
2022-11-19T09:40:21.669Z,13.70
2022-11-19T09:43:08.485Z,10.68
2022-11-19T09:45:44.408Z,9.38
2022-11-19T09:51:00.139Z,5.70
2022-11-19T09:55:57.613Z,6.80
2022-11-19T09:58:44.014Z,8.90
2022-11-19T10:01:18.688Z,14.25
2022-11-19T10:03:48.401Z,10.77
2022-11-19T10:06:15.170Z,7.43
2022-11-19T10:08:53.540Z,8.90
2022-11-19T10:11:39.053Z,5.57
2022-11-19T10:14:05.986Z,6.90
2022-11-19T10:16:44.962Z,8.10
2022-11-19T10:19:30.274Z,6.60
2022-11-19T10:22:15.561Z,5.72
2022-11-19T10:27:29.241Z,8.20
2022-11-19T10:29:58.583Z,4.97
2022-11-19T10:32:29.606Z,9.93
2022-11-19T10:34:58.788Z,11.77
2022-11-19T10:37:27.246Z,8.63
2022-11-19T10:39:57.542Z,13.65
2022-11-19T10:42:34.507Z,10.18
2022-11-19T10:45:17.913Z,9.75
2022-11-19T10:50:30.535Z,10.85
2022-11-19T10:55:54.024Z,10.52
2022-11-19T10:58:21.289Z,10.38
2022-11-19T11:00:48.327Z,14.18
2022-11-19T11:19:24.000Z,5.45
2022-11-19T11:26:46.259Z,8.00
2022-11-19T11:42:06.020Z,4.60
2022-11-19T11:47:13.934Z,7.97
2022-11-19T11:49:42.567Z,6.93
2022-11-19T11:52:09.543Z,4.60
2022-11-19T11:54:37.288Z,6.82
2022-11-19T11:57:17.730Z,9.02
2022-11-19T11:59:44.817Z,8.25
2022-11-19T12:02:27.294Z,5.78
2022-11-19T12:04:55.520Z,7.45
2022-11-19T12:07:32.751Z,5.43
2022-11-19T12:10:08.817Z,7.05
2022-11-19T12:12:35.534Z,6.40
2022-11-19T12:15:05.051Z,5.65
2022-11-19T12:17:35.626Z,4.07
2022-11-19T12:20:17.936Z,6.32
2022-11-19T12:23:03.624Z,5.78
2022-11-19T12:30:43.929Z,7.50
2022-11-19T12:33:16.875Z,7.20
2022-11-19T12:38:24.209Z,4.82
2022-11-19T12:40:54.149Z,5.22
2022-11-19T12:43:26.993Z,6.90
2022-11-19T12:46:19.666Z,7.97
2022-11-19T12:49:01.505Z,5.40
2022-11-19T12:59:12.307Z,6.28
2022-11-19T13:01:41.755Z,5.70
2022-11-19T13:04:23.993Z,3.55
2022-11-19T13:06:57.926Z,7.80
2022-11-19T13:26:39.579Z,4.65
2022-11-19T13:29:31.998Z,5.32
2022-11-19T13:37:06.727Z,10.13
2022-11-19T13:39:39.587Z,5.43
2022-11-19T13:42:26.053Z,7.40
2022-11-19T13:44:52.708Z,8.02
2022-11-19T13:47:19.317Z,9.23
2022-11-19T13:49:48.230Z,7.95
2022-11-19T13:52:38.504Z,11.27
2022-11-19T13:55:05.877Z,9.98
2022-11-19T13:57:34.188Z,6.47
2022-11-19T14:00:19.772Z,5.65
2022-11-19T14:02:46.462Z,6.38
2022-11-19T14:08:03.144Z,9.80
2022-11-19T14:13:11.572Z,5.15
2022-11-19T14:19:00.553Z,7.88
2022-11-19T14:21:45.712Z,7.22
2022-11-19T14:24:46.141Z,4.22
2022-11-19T14:32:13.501Z,5.95
2022-11-19T14:34:41.730Z,4.03
2022-11-19T14:37:19.400Z,6.45
2022-11-19T14:42:19.917Z,8.68
2022-11-19T14:45:06.815Z,4.75
2022-11-19T14:47:35.598Z,6.07
2022-11-19T14:50:04.016Z,7.68
2022-11-19T14:52:40.022Z,6.82
2022-11-19T14:55:18.952Z,5.30
2022-11-19T15:00:18.396Z,12.50
2022-11-19T15:02:49.728Z,11.07
2022-11-19T15:05:20.960Z,10.65
2022-11-19T15:07:56.131Z,9.02
2022-11-19T15:10:25.870Z,15.70
2022-11-19T15:13:02.069Z,7.57
2022-11-19T15:15:33.017Z,9.98
2022-11-19T15:18:01.818Z,6.05
2022-11-19T15:20:34.925Z,9.70
2022-11-19T15:23:20.917Z,6.13
2022-11-19T15:33:51.951Z,4.45
2022-11-19T15:36:29.949Z,10.52
2022-11-19T15:39:05.448Z,3.28
2022-11-19T15:41:35.270Z,8.38
2022-11-19T15:44:03.983Z,8.82
2022-11-19T15:49:25.174Z,4.57
2022-11-19T15:51:51.837Z,6.13
2022-11-19T15:54:18.431Z,3.67
2022-11-19T15:56:50.303Z,5.38
2022-11-19T15:59:18.792Z,6.85
2022-11-19T16:01:55.726Z,5.70
2022-11-19T16:04:22.800Z,7.75
2022-11-19T16:06:50.964Z,7.40
2022-11-19T16:09:19.811Z,3.65
2022-11-19T16:12:07.996Z,12.05
2022-11-19T16:14:53.531Z,6.90
2022-11-19T16:17:36.871Z,10.43
2022-11-19T16:22:35.531Z,8.70
2022-11-19T16:25:10.865Z,7.78
2022-11-19T16:27:40.246Z,12.30
2022-11-19T16:30:07.284Z,11.93
2022-11-19T16:32:33.957Z,8.98
2022-11-19T16:37:56.241Z,10.00
2022-11-19T16:40:23.602Z,16.52
2022-11-19T16:42:52.886Z,27.70
2022-11-19T16:45:30.301Z,36.33
2022-11-19T16:50:31.613Z,24.13
2022-11-19T16:55:25.203Z,21.13
2022-11-19T16:57:54.799Z,20.52
2022-11-19T17:10:24.524Z,36.10
2022-11-19T17:12:51.673Z,28.20
2022-11-19T17:20:35.567Z,20.33
2022-11-19T17:23:08.767Z,19.08
2022-11-19T17:25:35.490Z,16.60
2022-11-19T17:28:02.480Z,22.85
2022-11-19T17:30:33.570Z,20.00
2022-11-19T17:35:36.069Z,17.60
2022-11-19T17:38:10.586Z,19.48
2022-11-19T17:40:38.373Z,20.00
2022-11-19T17:43:27.965Z,16.42
2022-11-19T17:45:54.778Z,12.38
2022-11-19T17:48:25.239Z,13.65
2022-11-19T17:50:51.865Z,16.35
2022-11-19T17:53:22.276Z,12.23
2022-11-19T17:55:51.808Z,11.38
2022-11-19T17:58:18.915Z,19.10
2022-11-19T18:06:02.616Z,28.85
2022-11-19T18:08:29.365Z,21.58
2022-11-19T18:10:56.084Z,16.38
2022-11-19T18:13:25.054Z,21.45
2022-11-19T18:15:51.797Z,17.33
2022-11-19T18:18:21.873Z,21.27
2022-11-19T18:23:14.918Z,18.77
2022-11-19T18:25:42.373Z,14.82
2022-11-19T18:35:27.845Z,25.02
2022-11-19T18:37:54.577Z,24.17
2022-11-19T18:40:21.270Z,23.30
2022-11-19T18:43:06.416Z,22.38
2022-11-19T18:45:33.084Z,23.50
2022-11-19T18:47:59.745Z,17.10
2022-11-19T18:52:51.864Z,20.95
2022-11-19T18:55:18.552Z,18.17
2022-11-19T19:02:37.157Z,11.13
2022-11-19T19:05:04.452Z,11.90
2022-11-19T19:07:31.620Z,15.18
2022-11-19T19:09:58.777Z,14.95
2022-11-19T19:14:51.707Z,13.00
2022-11-19T19:17:18.921Z,13.10
2022-11-19T19:19:45.614Z,14.10
2022-11-19T19:22:12.296Z,18.45
2022-11-19T19:24:38.958Z,15.27
2022-11-19T19:29:31.289Z,20.30
2022-11-19T19:31:58.430Z,22.98
2022-11-19T19:34:25.321Z,29.75
2022-11-19T19:36:53.658Z,29.77
2022-11-19T19:39:20.946Z,29.50
2022-11-19T19:44:14.697Z,31.02
2022-11-19T19:46:41.554Z,22.90
2022-11-19T19:51:33.865Z,28.13
2022-11-19T19:54:00.899Z,23.45
2022-11-19T19:56:28.964Z,26.48
2022-11-19T19:58:56.222Z,23.20
2022-11-19T20:01:24.638Z,22.65
2022-11-19T20:03:54.736Z,32.70
2022-11-19T20:06:22.926Z,24.02
2022-11-19T20:08:49.667Z,23.15
2022-11-19T20:13:43.911Z,24.20
2022-11-19T20:16:22.357Z,27.60
2022-11-19T20:23:45.665Z,32.65
2022-11-19T20:26:16.395Z,23.27
2022-11-19T20:28:43.101Z,22.52
2022-11-19T20:31:28.240Z,21.80
2022-11-19T20:33:56.292Z,23.15
2022-11-19T20:36:25.170Z,21.42
2022-11-19T20:38:52.089Z,19.52
2022-11-19T20:41:38.133Z,26.23
2022-11-19T20:46:49.229Z,39.60
2022-11-19T20:49:17.348Z,35.55
2022-11-19T20:54:10.899Z,30.40
2022-11-19T20:56:37.998Z,36.78
2022-11-19T21:01:31.917Z,42.00
2022-11-19T21:03:59.161Z,39.85
2022-11-19T21:06:26.120Z,42.28
2022-11-19T21:08:52.863Z,37.85
2022-11-19T21:11:19.694Z,37.80
2022-11-19T21:13:46.414Z,48.55
2022-11-19T21:16:14.359Z,28.05
2022-11-19T21:18:42.703Z,23.42
2022-11-19T21:21:14.538Z,21.38
2022-11-19T21:23:41.208Z,18.50
2022-11-19T21:26:17.396Z,19.63
2022-11-19T21:28:49.271Z,20.55
2022-11-19T21:31:16.844Z,16.00
2022-11-19T21:36:09.146Z,23.67
2022-11-19T21:38:36.209Z,22.40
2022-11-19T21:45:54.642Z,22.05
2022-11-19T21:48:25.019Z,24.10
2022-11-19T21:50:52.505Z,18.48
2022-11-19T21:53:19.867Z,20.23
2022-11-19T21:55:46.676Z,17.50
2022-11-19T22:03:05.935Z,22.83
2022-11-19T22:05:32.696Z,19.85
2022-11-19T22:08:00.003Z,17.67
2022-11-19T22:10:29.255Z,20.38
2022-11-19T22:17:47.867Z,17.38
2022-11-19T22:22:45.106Z,21.50
2022-11-19T22:25:12.476Z,18.27
2022-11-19T22:30:06.290Z,18.67
2022-11-19T22:32:33.195Z,15.15
2022-11-19T22:37:25.322Z,13.35
2022-11-19T22:39:51.915Z,19.55
2022-11-19T22:44:43.914Z,18.15
2022-11-19T22:47:10.657Z,21.38
2022-11-19T22:49:38.549Z,21.70
2022-11-19T22:52:05.196Z,17.27
2022-11-19T22:54:31.835Z,16.25
2022-11-19T22:56:58.522Z,14.77
2022-11-19T22:59:25.178Z,13.70
2022-11-19T23:01:52.188Z,16.60
2022-11-19T23:09:09.788Z,11.77
2022-11-19T23:11:55.078Z,18.63
2022-11-19T23:14:21.823Z,11.00
2022-11-19T23:16:48.840Z,15.13
2022-11-19T23:19:19.037Z,18.27
2022-11-19T23:21:46.201Z,12.55
2022-11-19T23:24:12.763Z,10.50
2022-11-19T23:29:05.692Z,12.10
2022-11-19T23:31:33.852Z,14.40
2022-11-19T23:38:56.338Z,13.50
2022-11-19T23:41:23.765Z,9.40
2022-11-19T23:43:52.333Z,12.48
2022-11-19T23:46:20.150Z,15.05
2022-11-19T23:48:47.450Z,11.95
2022-11-19T23:51:15.429Z,10.52
2022-11-19T23:53:42.571Z,15.55
2022-11-19T23:58:35.712Z,14.65
